Time;durP1;ratioP1;P1;durP2;ratioP2;P2;SDS_P1;SDS_P2;PMS_P1;PMS_P2;Temp;Humidity;BMP_temperature;BMP_pressure;BME280_temperature;BME280_humidity;BME280_pressure;Samples;Min_cycle;Max_cycle;Signal;HPM_P1;HPM_P2
2022/11/16 00:01:24;;;;;;;35.17;14.93;;;;;;;;;;4993098;28;20399;-76
2022/11/16 00:03:51;;;;;;;30.60;14.83;;;;;;;;;;4993060;28;20069;-74
2022/11/16 00:06:18;;;;;;;32.37;15.50;;;;;;;;;;4991771;28;20034;-75
2022/11/16 00:09:20;;;;;;;32.67;14.93;;;;;;;;;;4993093;28;20129;-75
2022/11/16 00:11:31;;;;;;;34.97;15.03;;;;;;;;;;4993510;28;20474;-75
2022/11/16 00:13:56;;;;;;;31.57;13.40;;;;;;;;;;4992018;28;20045;-76
2022/11/16 00:16:22;;;;;;;27.03;12.97;;;;;;;;;;4993708;28;20069;-75
2022/11/16 00:18:47;;;;;;;32.53;14.67;;;;;;;;;;4992173;28;20022;-76
2022/11/16 00:21:12;;;;;;;33.87;14.90;;;;;;;;;;4993100;28;20502;-76
2022/11/16 00:23:38;;;;;;;35.97;16.33;;;;;;;;;;4992353;28;20144;-75
2022/11/16 00:26:10;;;;;;;33.07;13.97;;;;;;;;;;4999471;28;20018;-75
2022/11/16 00:28:36;;;;;;;33.77;15.37;;;;;;;;;;5013015;28;20036;-75
2022/11/16 00:31:04;;;;;;;29.40;14.43;;;;;;;;;;5012147;28;20030;-76
2022/11/16 00:33:30;;;;;;;34.97;13.73;;;;;;;;;;5012790;28;20049;-77
2022/11/16 00:35:56;;;;;;;26.40;13.03;;;;;;;;;;5011985;28;20038;-75
2022/11/16 00:38:22;;;;;;;28.83;12.90;;;;;;;;;;5012270;28;20040;-75
2022/11/16 00:40:48;;;;;;;29.13;14.40;;;;;;;;;;5012441;28;20093;-75
2022/11/16 00:43:14;;;;;;;27.47;13.07;;;;;;;;;;5011970;28;20128;-74
2022/11/16 00:45:42;;;;;;;32.07;14.27;;;;;;;;;;5010804;28;20041;-75
2022/11/16 00:48:07;;;;;;;29.90;15.50;;;;;;;;;;5011503;28;20034;-74
2022/11/16 00:50:33;;;;;;;27.10;13.40;;;;;;;;;;5010561;28;20034;-75
2022/11/16 00:52:59;;;;;;;29.97;14.13;;;;;;;;;;5013044;28;20038;-75
2022/11/16 00:55:24;;;;;;;33.37;16.23;;;;;;;;;;5011163;28;20064;-76
2022/11/16 00:57:49;;;;;;;33.77;14.97;;;;;;;;;;5012401;28;20591;-76
2022/11/16 01:00:16;;;;;;;28.67;14.40;;;;;;;;;;5012270;28;20042;-75
2022/11/16 01:02:41;;;;;;;31.00;14.53;;;;;;;;;;5010654;28;20076;-76
2022/11/16 01:05:08;;;;;;;28.27;13.00;;;;;;;;;;5011940;28;20530;-75
2022/11/16 01:07:36;;;;;;;36.37;14.63;;;;;;;;;;5010478;28;20095;-75
2022/11/16 01:10:07;;;;;;;32.57;14.47;;;;;;;;;;5011952;28;20034;-76
2022/11/16 01:12:33;;;;;;;29.98;13.75;;;;;;;;;;5011771;28;20034;-75
2022/11/16 01:14:58;;;;;;;31.73;13.90;;;;;;;;;;5010906;28;20452;-75
2022/11/16 01:17:24;;;;;;;32.60;13.73;;;;;;;;;;5011095;28;20026;-76
2022/11/16 01:19:49;;;;;;;32.93;15.10;;;;;;;;;;5012142;28;20033;-75
2022/11/16 01:22:15;;;;;;;38.60;15.47;;;;;;;;;;5009893;28;20497;-75
2022/11/16 01:24:41;;;;;;;37.03;15.63;;;;;;;;;;5011870;28;20061;-76
2022/11/16 01:27:06;;;;;;;35.23;15.97;;;;;;;;;;4995430;28;20018;-75
2022/11/16 01:29:32;;;;;;;31.03;14.63;;;;;;;;;;4990065;28;20030;-75
2022/11/16 01:31:58;;;;;;;33.23;15.83;;;;;;;;;;4991382;28;20366;-76
2022/11/16 01:34:24;;;;;;;30.67;14.10;;;;;;;;;;4991998;28;20412;-75
2022/11/16 01:36:49;;;;;;;31.57;13.87;;;;;;;;;;4991595;28;20026;-75
2022/11/16 01:39:16;;;;;;;32.47;15.53;;;;;;;;;;4990083;28;20076;-76
2022/11/16 01:41:43;;;;;;;34.43;16.20;;;;;;;;;;4989894;28;20045;-76
2022/11/16 01:44:14;;;;;;;34.30;15.37;;;;;;;;;;4990983;28;20509;-75
2022/11/16 01:46:40;;;;;;;31.55;16.27;;;;;;;;;;4991002;28;20168;-75
2022/11/16 01:49:10;;;;;;;31.53;14.40;;;;;;;;;;4990725;28;20031;-75
2022/11/16 01:51:36;;;;;;;29.77;14.70;;;;;;;;;;4990702;28;20057;-75
2022/11/16 01:54:06;;;;;;;33.23;14.97;;;;;;;;;;4991737;28;20022;-75
2022/11/16 01:56:34;;;;;;;35.13;16.43;;;;;;;;;;4991902;28;20034;-76
2022/11/16 01:59:00;;;;;;;32.73;15.83;;;;;;;;;;4991581;28;20022;-75
2022/11/16 02:01:25;;;;;;;35.57;15.43;;;;;;;;;;4991644;28;20023;-75
2022/11/16 02:03:50;;;;;;;29.60;14.17;;;;;;;;;;4990489;28;20133;-76
2022/11/16 02:06:22;;;;;;;29.23;13.90;;;;;;;;;;4990933;28;20034;-76
2022/11/16 02:12:31;;;;;;;26.63;12.87;;;;;;;;;;4992423;28;20045;-76
2022/11/16 02:15:21;;;;;;;26.77;12.83;;;;;;;;;;4990205;28;20034;-74
2022/11/16 02:18:01;;;;;;;26.43;12.93;;;;;;;;;;4991888;28;20034;-77
2022/11/16 02:20:35;;;;;;;27.10;12.07;;;;;;;;;;4992041;28;20018;-76
2022/11/16 02:23:29;;;;;;;21.67;12.10;;;;;;;;;;4993254;28;20022;-75
2022/11/16 02:26:16;;;;;;;26.27;10.77;;;;;;;;;;5002145;28;20441;-76
2022/11/16 02:29:11;;;;;;;28.30;13.10;;;;;;;;;;5013969;28;20022;-76
2022/11/16 02:31:42;;;;;;;31.90;14.47;;;;;;;;;;5013965;28;20026;-75
2022/11/16 02:34:10;;;;;;;24.80;11.60;;;;;;;;;;5015279;28;20108;-75
2022/11/16 02:36:40;;;;;;;28.60;12.03;;;;;;;;;;5013578;28;20061;-76
2022/11/16 02:39:20;;;;;;;22.57;11.50;;;;;;;;;;5015130;28;20014;-76
2022/11/16 02:41:48;;;;;;;27.73;12.60;;;;;;;;;;5013755;28;20036;-75
2022/11/16 02:44:27;;;;;;;24.10;12.07;;;;;;;;;;5015400;28;20107;-77
2022/11/16 02:46:58;;;;;;;26.37;12.60;;;;;;;;;;5015031;28;20382;-75
2022/11/16 02:49:25;;;;;;;24.63;11.50;;;;;;;;;;5013304;28;20034;-75
2022/11/16 02:51:53;;;;;;;24.87;11.63;;;;;;;;;;5014713;28;20095;-76
2022/11/16 02:54:20;;;;;;;24.73;11.60;;;;;;;;;;5046385;28;20029;-76
2022/11/16 02:57:00;;;;;;;28.13;12.40;;;;;;;;;;5013187;28;20033;-75
2022/11/16 02:59:35;;;;;;;24.37;11.40;;;;;;;;;;5014875;28;20423;-76
2022/11/16 03:02:19;;;;;;;24.50;10.37;;;;;;;;;;5014614;28;20469;-75
2022/11/16 03:04:48;;;;;;;23.47;12.03;;;;;;;;;;5012056;28;20034;-76
2022/11/16 03:07:19;;;;;;;24.43;10.83;;;;;;;;;;5012583;28;20396;-75
2022/11/16 03:09:47;;;;;;;24.40;12.07;;;;;;;;;;5014338;28;20037;-76
2022/11/16 03:12:24;;;;;;;30.07;12.50;;;;;;;;;;5012860;28;20061;-75
2022/11/16 03:14:54;;;;;;;26.30;11.57;;;;;;;;;;5012823;28;20026;-75
2022/11/16 03:17:33;;;;;;;22.97;11.30;;;;;;;;;;5014314;28;20033;-75
2022/11/16 03:20:11;;;;;;;25.00;11.43;;;;;;;;;;5014574;28;20045;-75
2022/11/16 03:22:47;;;;;;;24.70;12.13;;;;;;;;;;5013164;28;20037;-75
2022/11/16 03:25:16;;;;;;;24.03;11.93;;;;;;;;;;5012279;28;20370;-76
2022/11/16 03:27:58;;;;;;;21.90;10.50;;;;;;;;;;4994817;28;20030;-77
2022/11/16 03:30:26;;;;;;;23.08;11.75;;;;;;;;;;4993173;28;20018;-75
2022/11/16 03:33:26;;;;;;;22.27;10.87;;;;;;;;;;4994670;28;20034;-75
2022/11/16 03:35:58;;;;;;;24.37;11.20;;;;;;;;;;4994574;28;20061;-76
2022/11/16 03:38:26;;;;;;;26.10;12.10;;;;;;;;;;4994343;28;20027;-76
2022/11/16 03:40:58;;;;;;;23.57;12.17;;;;;;;;;;4994059;28;20105;-75
2022/11/16 03:43:25;;;;;;;24.63;11.32;;;;;;;;;;4993686;28;20133;-75
2022/11/16 03:45:53;;;;;;;27.37;12.60;;;;;;;;;;4992991;28;20050;-75
2022/11/16 03:48:19;;;;;;;23.60;11.10;;;;;;;;;;4993184;28;20034;-75
2022/11/16 03:50:45;;;;;;;22.63;11.13;;;;;;;;;;4993712;28;20027;-75
2022/11/16 03:53:10;;;;;;;27.17;12.53;;;;;;;;;;4993319;28;20121;-75
2022/11/16 03:55:36;;;;;;;23.43;10.90;;;;;;;;;;5008342;28;20435;-75
2022/11/16 03:58:02;;;;;;;25.27;11.13;;;;;;;;;;4993396;28;20080;-76
2022/11/16 04:00:27;;;;;;;25.37;11.47;;;;;;;;;;4991716;28;20034;-76
2022/11/16 04:02:53;;;;;;;22.60;11.30;;;;;;;;;;4993444;28;20030;-76
2022/11/16 04:24:58;;;;;;;25.97;11.43;;;;;;;;;;4992953;28;20041;-76
2022/11/16 04:30:12;;;;;;;31.80;11.27;;;;;;;;;;5012227;28;20426;-76
2022/11/16 04:38:05;;;;;;;23.43;11.37;;;;;;;;;;5011644;28;20064;-77
2022/11/16 04:40:31;;;;;;;20.80;10.37;;;;;;;;;;5011836;28;20041;-75
2022/11/16 04:42:59;;;;;;;22.47;11.70;;;;;;;;;;5012524;28;20451;-75
2022/11/16 04:48:11;;;;;;;23.80;12.10;;;;;;;;;;5011657;28;20064;-75
2022/11/16 04:50:37;;;;;;;24.20;12.17;;;;;;;;;;5010779;28;20421;-73
2022/11/16 04:53:03;;;;;;;23.57;11.43;;;;;;;;;;5012008;28;20021;-77
2022/11/16 04:55:29;;;;;;;28.03;11.77;;;;;;;;;;5010442;28;20543;-75
2022/11/16 04:57:54;;;;;;;20.73;12.17;;;;;;;;;;5012067;28;20109;-76
2022/11/16 05:00:20;;;;;;;25.33;12.80;;;;;;;;;;5009948;28;20030;-76
2022/11/16 05:02:46;;;;;;;24.90;12.73;;;;;;;;;;5012120;28;20458;-75
2022/11/16 05:05:12;;;;;;;26.40;12.53;;;;;;;;;;5011213;28;20469;-76
2022/11/16 05:07:37;;;;;;;26.93;12.13;;;;;;;;;;5011259;28;20113;-75
2022/11/16 05:10:04;;;;;;;23.30;12.57;;;;;;;;;;5012045;28;20474;-75
2022/11/16 05:12:29;;;;;;;25.53;12.00;;;;;;;;;;5026962;28;20034;-76
2022/11/16 05:14:55;;;;;;;26.07;12.57;;;;;;;;;;5011765;28;20117;-75
2022/11/16 05:17:22;;;;;;;25.90;12.53;;;;;;;;;;5010238;28;20036;-76
2022/11/16 05:22:33;;;;;;;27.03;12.43;;;;;;;;;;5011308;28;20583;-75
2022/11/16 05:24:58;;;;;;;24.40;12.40;;;;;;;;;;5012423;28;20038;-74
2022/11/16 05:27:25;;;;;;;21.13;10.97;;;;;;;;;;5011794;28;20037;-75
2022/11/16 05:29:51;;;;;;;24.33;10.90;;;;;;;;;;5011308;28;20061;-75
2022/11/16 05:32:18;;;;;;;24.27;10.43;;;;;;;;;;5010985;28;20038;-74
2022/11/16 05:34:44;;;;;;;25.27;10.57;;;;;;;;;;5011177;28;20036;-74
2022/11/16 05:37:12;;;;;;;25.20;12.40;;;;;;;;;;5011428;28;20030;-76
2022/11/16 05:39:37;;;;;;;24.27;12.40;;;;;;;;;;5011914;28;20226;-76
2022/11/16 05:42:04;;;;;;;21.50;11.53;;;;;;;;;;5026528;28;20092;-76
2022/11/16 05:44:29;;;;;;;24.20;11.20;;;;;;;;;;5026878;28;20125;-76
2022/11/16 05:46:55;;;;;;;30.23;13.63;;;;;;;;;;5011908;28;20545;-75
2022/11/16 05:49:21;;;;;;;26.93;12.73;;;;;;;;;;5011204;28;20026;-75
2022/11/16 05:51:47;;;;;;;22.73;12.27;;;;;;;;;;5010037;28;20038;-75
2022/11/16 05:54:15;;;;;;;28.17;12.43;;;;;;;;;;5010833;28;20037;-77
2022/11/16 05:56:41;;;;;;;25.30;12.30;;;;;;;;;;5009243;28;20044;-76
2022/11/16 05:59:06;;;;;;;30.43;12.97;;;;;;;;;;5011629;28;20541;-76
2022/11/16 06:01:32;;;;;;;27.93;13.13;;;;;;;;;;5009946;28;20057;-76
2022/11/16 06:03:59;;;;;;;23.20;11.67;;;;;;;;;;5009360;28;20485;-76
2022/11/16 06:06:25;;;;;;;24.43;11.77;;;;;;;;;;5010470;28;20132;-74
2022/11/16 06:08:50;;;;;;;27.87;13.00;;;;;;;;;;5008843;28;20065;-74
2022/11/16 06:11:16;;;;;;;29.20;12.20;;;;;;;;;;5008034;28;20117;-75
2022/11/16 06:13:42;;;;;;;25.97;13.20;;;;;;;;;;5010092;28;20045;-75
2022/11/16 06:16:08;;;;;;;26.33;12.60;;;;;;;;;;5010841;28;20037;-73
2022/11/16 06:18:39;;;;;;;27.43;13.33;;;;;;;;;;5003361;28;20022;-79
2022/11/16 06:21:06;;;;;;;31.92;14.07;;;;;;;;;;5002831;28;20034;-76
2022/11/16 06:23:32;;;;;;;26.87;13.43;;;;;;;;;;5021405;28;20783;-75
2022/11/16 06:25:58;;;;;;;29.93;13.53;;;;;;;;;;5008577;28;20033;-77
2022/11/16 06:28:23;;;;;;;26.83;13.17;;;;;;;;;;5005305;28;20034;-75
2022/11/16 06:30:49;;;;;;;32.50;13.47;;;;;;;;;;5000622;28;20029;-75
2022/11/16 06:33:15;;;;;;;30.97;12.57;;;;;;;;;;5001955;28;20030;-74
2022/11/16 06:35:41;;;;;;;26.07;13.17;;;;;;;;;;5015612;28;20531;-74
2022/11/16 06:38:08;;;;;;;30.73;13.97;;;;;;;;;;5015951;28;20029;-72
2022/11/16 06:40:34;;;;;;;28.70;14.83;;;;;;;;;;5004575;28;20084;-74
2022/11/16 06:42:59;;;;;;;27.07;13.20;;;;;;;;;;5001771;28;20352;-74
2022/11/16 06:45:25;;;;;;;34.50;13.60;;;;;;;;;;5005021;28;20496;-76
2022/11/16 06:47:51;;;;;;;35.43;15.70;;;;;;;;;;5007686;28;20072;-75
2022/11/16 06:50:20;;;;;;;45.43;19.70;;;;;;;;;;5022546;28;20111;-75
2022/11/16 06:52:47;;;;;;;46.07;20.17;;;;;;;;;;5018257;28;20033;-75
2022/11/16 06:55:12;;;;;;;43.87;20.33;;;;;;;;;;5019145;28;20029;-75
2022/11/16 06:57:39;;;;;;;50.50;21.30;;;;;;;;;;5001980;28;20042;-76
2022/11/16 07:00:06;;;;;;;44.93;19.73;;;;;;;;;;5013502;28;20046;-76
2022/11/16 07:02:32;;;;;;;45.73;20.10;;;;;;;;;;5029495;28;20182;-76
2022/11/16 07:04:58;;;;;;;42.23;19.00;;;;;;;;;;5019608;28;20491;-76
2022/11/16 07:07:23;;;;;;;40.07;18.53;;;;;;;;;;5031607;28;20369;-76
2022/11/16 07:09:49;;;;;;;37.37;16.77;;;;;;;;;;5025190;28;20504;-74
2022/11/16 07:12:14;;;;;;;35.70;15.47;;;;;;;;;;5001446;28;20100;-76
2022/11/16 07:14:40;;;;;;;30.77;14.53;;;;;;;;;;5018982;28;20056;-77
2022/11/16 07:17:06;;;;;;;31.93;14.50;;;;;;;;;;5014830;28;20114;-75
2022/11/16 07:19:31;;;;;;;30.77;13.63;;;;;;;;;;5021283;28;20131;-77
2022/11/16 07:21:57;;;;;;;32.10;15.43;;;;;;;;;;5021087;28;20022;-77
2022/11/16 07:24:22;;;;;;;39.03;15.90;;;;;;;;;;5014873;28;20091;-75
2022/11/16 07:26:48;;;;;;;28.23;14.63;;;;;;;;;;5007979;28;20050;-77
2022/11/16 07:29:14;;;;;;;36.93;16.63;;;;;;;;;;5012229;28;20057;-77
2022/11/16 07:31:40;;;;;;;32.13;15.07;;;;;;;;;;5010494;28;20030;-75
2022/11/16 07:34:05;;;;;;;39.77;18.40;;;;;;;;;;5005403;28;20088;-76
2022/11/16 07:36:31;;;;;;;31.90;14.83;;;;;;;;;;5033248;28;20059;-75
2022/11/16 07:38:56;;;;;;;27.83;13.40;;;;;;;;;;5024207;28;20046;-78
2022/11/16 07:41:22;;;;;;;28.35;13.00;;;;;;;;;;5016218;28;20161;-77
2022/11/16 07:43:48;;;;;;;44.37;13.97;;;;;;;;;;5004700;28;20137;-76
2022/11/16 07:46:19;;;;;;;30.57;14.20;;;;;;;;;;5016977;28;20120;-77
2022/11/16 07:48:45;;;;;;;31.33;14.20;;;;;;;;;;5015365;28;20025;-78
2022/11/16 07:51:13;;;;;;;26.50;14.27;;;;;;;;;;5015599;28;20540;-76
2022/11/16 07:53:39;;;;;;;31.40;14.20;;;;;;;;;;5008168;28;20095;-77
2022/11/16 07:56:06;;;;;;;29.00;13.03;;;;;;;;;;5007483;28;20037;-77
2022/11/16 07:58:33;;;;;;;26.97;12.90;;;;;;;;;;4993368;28;20026;-79
2022/11/16 08:01:07;;;;;;;26.87;12.87;;;;;;;;;;5009750;28;20422;-75
2022/11/16 08:03:34;;;;;;;27.57;12.93;;;;;;;;;;5010569;28;20056;-78
2022/11/16 08:06:05;;;;;;;25.30;12.27;;;;;;;;;;5010155;28;20358;-75
2022/11/16 08:08:31;;;;;;;27.63;14.07;;;;;;;;;;5014024;28;20040;-78
2022/11/16 08:11:05;;;;;;;33.30;13.60;;;;;;;;;;5011227;28;20033;-79
2022/11/16 08:13:33;;;;;;;27.67;12.00;;;;;;;;;;5023848;28;20041;-77
2022/11/16 08:16:03;;;;;;;25.33;13.40;;;;;;;;;;5014675;28;20038;-77
2022/11/16 08:18:29;;;;;;;32.13;12.73;;;;;;;;;;5028375;28;20030;-78
2022/11/16 08:20:57;;;;;;;34.97;14.33;;;;;;;;;;5010903;28;20463;-78
2022/11/16 08:23:23;;;;;;;31.40;14.33;;;;;;;;;;5011061;28;20029;-76
2022/11/16 08:25:48;;;;;;;27.53;12.73;;;;;;;;;;5005467;28;20209;-77
2022/11/16 08:28:15;;;;;;;33.53;13.87;;;;;;;;;;5001894;28;20058;-81
2022/11/16 08:30:41;;;;;;;31.00;13.70;;;;;;;;;;5009520;28;20041;-76
2022/11/16 08:33:10;;;;;;;29.27;13.27;;;;;;;;;;5003722;28;20034;-79
2022/11/16 08:35:37;;;;;;;28.83;13.47;;;;;;;;;;5003692;28;20367;-78
2022/11/16 08:38:02;;;;;;;27.03;11.70;;;;;;;;;;5002286;28;20033;-79
2022/11/16 08:40:28;;;;;;;28.83;14.33;;;;;;;;;;5010181;28;20018;-77
2022/11/16 08:42:56;;;;;;;33.20;13.87;;;;;;;;;;5005715;28;20056;-78
2022/11/16 08:45:23;;;;;;;24.95;12.73;;;;;;;;;;5016731;28;20048;-78
2022/11/16 08:47:51;;;;;;;28.47;13.57;;;;;;;;;;5010939;28;20465;-78
2022/11/16 08:50:16;;;;;;;28.17;13.73;;;;;;;;;;5015759;28;20431;-74
2022/11/16 08:52:42;;;;;;;29.90;13.50;;;;;;;;;;5009192;28;20158;-74
2022/11/16 08:55:09;;;;;;;24.10;13.47;;;;;;;;;;5015623;28;20056;-77
2022/11/16 08:57:34;;;;;;;25.43;13.27;;;;;;;;;;5010162;28;20033;-78
2022/11/16 09:00:01;;;;;;;31.27;13.77;;;;;;;;;;4999825;28;20243;-74
2022/11/16 09:02:27;;;;;;;30.63;13.60;;;;;;;;;;5006879;28;20400;-76
2022/11/16 09:04:53;;;;;;;27.00;13.20;;;;;;;;;;5015393;28;20049;-75
2022/11/16 09:07:19;;;;;;;28.20;14.97;;;;;;;;;;5021835;28;20046;-76
2022/11/16 09:09:45;;;;;;;28.67;14.53;;;;;;;;;;5024376;28;20256;-75
2022/11/16 09:12:10;;;;;;;30.87;14.10;;;;;;;;;;5008104;28;20026;-75
2022/11/16 09:14:38;;;;;;;33.53;14.33;;;;;;;;;;4997816;28;20137;-76
2022/11/16 09:17:04;;;;;;;29.00;12.97;;;;;;;;;;5009579;28;20100;-73
2022/11/16 09:19:30;;;;;;;29.47;14.13;;;;;;;;;;5009047;28;20366;-76
2022/11/16 09:21:55;;;;;;;28.27;13.47;;;;;;;;;;5008558;28;20045;-75
2022/11/16 09:24:23;;;;;;;24.52;10.93;;;;;;;;;;5004795;28;20036;-74
2022/11/16 09:26:48;;;;;;;27.83;14.33;;;;;;;;;;5007369;28;20071;-76
2022/11/16 09:29:14;;;;;;;31.43;14.20;;;;;;;;;;5009081;28;20057;-75
2022/11/16 09:31:40;;;;;;;30.13;13.38;;;;;;;;;;5017261;28;20029;-77
2022/11/16 09:34:07;;;;;;;31.30;13.93;;;;;;;;;;5005715;28;20071;-77
2022/11/16 09:36:33;;;;;;;27.75;13.55;;;;;;;;;;5015662;28;20481;-77
2022/11/16 09:38:59;;;;;;;39.37;15.93;;;;;;;;;;5020893;28;20057;-78
2022/11/16 09:41:40;;;;;;;28.95;14.25;;;;;;;;;;5012184;28;20063;-77
2022/11/16 09:44:29;;;;;;;26.83;13.67;;;;;;;;;;5005180;28;20223;-75
2022/11/16 09:46:58;;;;;;;29.60;12.17;;;;;;;;;;5002869;28;20553;-76
2022/11/16 09:49:35;;;;;;;30.88;14.65;;;;;;;;;;5011560;28;20040;-74
2022/11/16 09:52:07;;;;;;;32.58;14.27;;;;;;;;;;5005905;28;20056;-76
2022/11/16 09:54:38;;;;;;;26.98;12.13;;;;;;;;;;5015049;28;20096;-75
2022/11/16 09:57:09;;;;;;;23.02;12.63;;;;;;;;;;5012065;28;20049;-74
2022/11/16 09:59:40;;;;;;;28.77;13.43;;;;;;;;;;5001584;28;20088;-74
2022/11/16 10:02:37;;;;;;;29.70;13.38;;;;;;;;;;4989554;28;20069;-76
2022/11/16 10:05:18;;;;;;;27.37;12.80;;;;;;;;;;5007155;28;20395;-75
2022/11/16 10:07:47;;;;;;;47.97;22.02;;;;;;;;;;5001649;28;20029;-76
2022/11/16 10:10:15;;;;;;;31.80;14.43;;;;;;;;;;5005943;28;20489;-76
2022/11/16 10:12:48;;;;;;;28.43;13.57;;;;;;;;;;5014369;28;20234;-73
2022/11/16 10:16:03;;;;;;;29.88;13.68;;;;;;;;;;5008151;28;20815;-75
2022/11/16 10:18:59;;;;;;;27.42;12.75;;;;;;;;;;4979249;28;20073;-76
2022/11/16 10:21:36;;;;;;;29.58;14.00;;;;;;;;;;4996384;28;20298;-75
2022/11/16 10:24:13;;;;;;;33.63;13.60;;;;;;;;;;5029399;28;20048;-74
2022/11/16 10:26:52;;;;;;;27.17;14.50;;;;;;;;;;5008145;28;20102;-75
2022/11/16 10:29:36;;;;;;;25.02;13.35;;;;;;;;;;5012455;28;20034;-74
2022/11/16 10:32:24;;;;;;;34.42;14.50;;;;;;;;;;5006754;28;20034;-77
2022/11/16 10:35:10;;;;;;;29.80;12.82;;;;;;;;;;5000228;28;20049;-80
2022/11/16 10:37:40;;;;;;;25.95;12.50;;;;;;;;;;5007800;28;20034;-79
2022/11/16 10:40:22;;;;;;;25.77;12.82;;;;;;;;;;5003960;28;20106;-78
2022/11/16 10:43:11;;;;;;;29.60;12.82;;;;;;;;;;5015237;28;20308;-78
2022/11/16 10:45:56;;;;;;;24.08;12.38;;;;;;;;;;5004820;28;20099;-79
2022/11/16 10:48:35;;;;;;;29.98;13.60;;;;;;;;;;5016758;28;20025;-78
2022/11/16 10:51:03;;;;;;;26.75;13.70;;;;;;;;;;5037258;28;20030;-78
2022/11/16 10:53:35;;;;;;;27.88;13.30;;;;;;;;;;5025184;28;20408;-77
2022/11/16 10:56:21;;;;;;;31.10;14.40;;;;;;;;;;5030377;28;20025;-78
2022/11/16 10:58:57;;;;;;;24.40;12.88;;;;;;;;;;5028027;28;20473;-78
2022/11/16 11:01:43;;;;;;;27.90;14.00;;;;;;;;;;5012627;28;20437;-76
2022/11/16 11:04:25;;;;;;;29.85;13.88;;;;;;;;;;5032657;28;20033;-78
2022/11/16 11:06:58;;;;;;;26.92;13.35;;;;;;;;;;5035021;28;20485;-76
2022/11/16 11:09:31;;;;;;;32.90;13.50;;;;;;;;;;5024205;28;20045;-77
2022/11/16 11:15:25;;;;;;;27.55;13.50;;;;;;;;;;5034197;28;20361;-78
2022/11/16 11:18:14;;;;;;;27.90;13.23;;;;;;;;;;5036180;28;20092;-76
2022/11/16 11:20:41;;;;;;;29.55;12.95;;;;;;;;;;5032234;28;20108;-78
2022/11/16 11:23:14;;;;;;;26.45;13.20;;;;;;;;;;5034857;28;20386;-78
2022/11/16 11:25:51;;;;;;;28.83;13.77;;;;;;;;;;5019503;28;20080;-76
2022/11/16 11:28:28;;;;;;;25.95;13.27;;;;;;;;;;5016550;28;20112;-77
2022/11/16 11:31:07;;;;;;;26.92;12.73;;;;;;;;;;5021802;28;20032;-77
2022/11/16 11:33:40;;;;;;;29.85;13.73;;;;;;;;;;5027483;28;20033;-76
2022/11/16 11:36:23;;;;;;;30.38;14.05;;;;;;;;;;5020993;28;20347;-78
2022/11/16 11:38:57;;;;;;;34.30;14.73;;;;;;;;;;5004287;28;20124;-77
2022/11/16 11:41:22;;;;;;;28.23;15.10;;;;;;;;;;5003651;28;20490;-77
2022/11/16 11:44:18;;;;;;;27.35;13.15;;;;;;;;;;5030978;28;20053;-77
2022/11/16 11:47:02;;;;;;;30.25;13.30;;;;;;;;;;5009569;28;20417;-78
2022/11/16 11:49:39;;;;;;;26.95;13.57;;;;;;;;;;5015708;28;20038;-76
2022/11/16 11:52:22;;;;;;;28.92;14.32;;;;;;;;;;5017434;28;20052;-74
2022/11/16 11:54:51;;;;;;;29.98;13.80;;;;;;;;;;4991470;28;20085;-75
2022/11/16 11:57:20;;;;;;;29.20;14.30;;;;;;;;;;5011482;28;20099;-75
2022/11/16 11:59:48;;;;;;;32.42;14.27;;;;;;;;;;5002933;28;20082;-77
2022/11/16 12:02:38;;;;;;;29.77;14.27;;;;;;;;;;5015452;28;20033;-77
2022/11/16 12:05:38;;;;;;;28.80;14.95;;;;;;;;;;5005760;28;20025;-78
2022/11/16 12:08:21;;;;;;;29.92;13.65;;;;;;;;;;5004260;28;20034;-77
2022/11/16 12:10:59;;;;;;;29.52;13.63;;;;;;;;;;5001777;28;20025;-77
2022/11/16 12:13:36;;;;;;;28.52;13.68;;;;;;;;;;5017208;28;20029;-76
2022/11/16 12:16:10;;;;;;;34.30;14.00;;;;;;;;;;5031211;28;20036;-78
2022/11/16 12:18:57;;;;;;;33.17;15.88;;;;;;;;;;5008258;28;20113;-78
2022/11/16 12:21:34;;;;;;;27.42;12.65;;;;;;;;;;5010877;28;20026;-78
2022/11/16 12:24:27;;;;;;;29.33;13.40;;;;;;;;;;5004483;28;20445;-78
2022/11/16 12:27:18;;;;;;;27.98;13.15;;;;;;;;;;5016999;28;20365;-79
2022/11/16 12:30:00;;;;;;;26.60;13.95;;;;;;;;;;5007917;28;20036;-78
2022/11/16 12:32:51;;;;;;;27.73;13.90;;;;;;;;;;5008914;28;20026;-76
2022/11/16 12:35:39;;;;;;;28.33;13.85;;;;;;;;;;4990328;28;20167;-77
2022/11/16 12:38:50;;;;;;;25.30;13.30;;;;;;;;;;5008216;28;20112;-76
2022/11/16 12:41:30;;;;;;;26.27;13.45;;;;;;;;;;5006773;28;20116;-79
2022/11/16 12:44:07;;;;;;;29.35;14.70;;;;;;;;;;5029872;28;20053;-78
2022/11/16 12:47:03;;;;;;;38.05;16.25;;;;;;;;;;5015909;28;20330;-77
2022/11/16 12:49:35;;;;;;;26.95;12.80;;;;;;;;;;5011340;28;20037;-77
2022/11/16 12:52:06;;;;;;;35.15;18.23;;;;;;;;;;5013197;28;20037;-78
2022/11/16 12:54:48;;;;;;;34.85;15.02;;;;;;;;;;5034140;28;20424;-79
2022/11/16 12:57:16;;;;;;;41.22;17.88;;;;;;;;;;5008543;28;20018;-78
2022/11/16 13:00:00;;;;;;;36.42;17.73;;;;;;;;;;5005038;28;20058;-79
2022/11/16 13:02:51;;;;;;;35.97;16.52;;;;;;;;;;5035476;28;20037;-80
2022/11/16 13:05:54;;;;;;;32.88;15.40;;;;;;;;;;5028709;28;20074;-78
2022/11/16 13:08:44;;;;;;;40.65;17.42;;;;;;;;;;5021179;28;20112;-80
2022/11/16 13:11:16;;;;;;;38.05;16.02;;;;;;;;;;5010144;28;20014;-79
2022/11/16 13:13:47;;;;;;;40.47;16.92;;;;;;;;;;5004915;28;20096;-79
2022/11/16 13:16:16;;;;;;;35.63;17.02;;;;;;;;;;5009638;28;20034;-77
2022/11/16 13:18:43;;;;;;;39.10;16.15;;;;;;;;;;5012431;28;20034;-77
2022/11/16 13:21:14;;;;;;;36.13;16.15;;;;;;;;;;5011710;28;20065;-77
2022/11/16 13:24:13;;;;;;;38.90;16.75;;;;;;;;;;5016924;28;20034;-76
2022/11/16 13:26:52;;;;;;;37.97;17.35;;;;;;;;;;5010074;28;20124;-77
2022/11/16 13:29:26;;;;;;;46.08;19.55;;;;;;;;;;5014378;28;20030;-78
2022/11/16 13:32:16;;;;;;;45.17;19.40;;;;;;;;;;5025629;28;20133;-76
2022/11/16 13:34:42;;;;;;;76.10;30.10;;;;;;;;;;5008107;28;20370;-77
2022/11/16 13:37:35;;;;;;;41.28;17.50;;;;;;;;;;5009406;28;20029;-78
2022/11/16 13:40:01;;;;;;;39.78;16.90;;;;;;;;;;5005944;28;20026;-78
2022/11/16 13:42:29;;;;;;;36.70;17.00;;;;;;;;;;5011479;28;20061;-77
2022/11/16 13:45:18;;;;;;;36.40;16.15;;;;;;;;;;5007355;28;20030;-76
2022/11/16 13:47:55;;;;;;;41.38;16.90;;;;;;;;;;5005197;28;20023;-77
2022/11/16 13:50:37;;;;;;;42.58;19.70;;;;;;;;;;5022381;28;20652;-79
2022/11/16 13:53:21;;;;;;;46.03;19.02;;;;;;;;;;5019987;28;20418;-79
2022/11/16 13:55:58;;;;;;;41.45;17.90;;;;;;;;;;5014970;28;20068;-78
2022/11/16 13:58:24;;;;;;;42.65;17.90;;;;;;;;;;5014249;28;20041;-77
2022/11/16 14:01:15;;;;;;;40.97;17.25;;;;;;;;;;5016402;28;20292;-78
2022/11/16 14:03:41;;;;;;;37.80;18.08;;;;;;;;;;5024119;28;20025;-77
2022/11/16 14:06:22;;;;;;;38.33;17.23;;;;;;;;;;5004094;28;20041;-76
2022/11/16 14:08:56;;;;;;;35.28;17.02;;;;;;;;;;5008338;28;20024;-78
2022/11/16 14:11:35;;;;;;;34.22;15.68;;;;;;;;;;5010336;28;20481;-76
2022/11/16 14:14:04;;;;;;;37.23;16.07;;;;;;;;;;5025724;28;20067;-78
2022/11/16 14:16:43;;;;;;;38.28;16.10;;;;;;;;;;5011511;28;20022;-75
2022/11/16 14:19:50;;;;;;;38.47;17.02;;;;;;;;;;5007752;28;20030;-77
2022/11/16 14:22:47;;;;;;;32.92;15.68;;;;;;;;;;5011089;28;20064;-75
2022/11/16 14:26:10;;;;;;;31.45;14.25;;;;;;;;;;5002588;28;20048;-77
2022/11/16 14:28:45;;;;;;;37.95;16.98;;;;;;;;;;4986024;28;20041;-76
2022/11/16 14:31:27;;;;;;;35.15;16.65;;;;;;;;;;4998312;28;20577;-77
2022/11/16 14:33:58;;;;;;;39.38;17.92;;;;;;;;;;5005746;28;20423;-78
2022/11/16 14:36:40;;;;;;;37.83;16.23;;;;;;;;;;5015117;28;20092;-78
2022/11/16 14:39:36;;;;;;;38.83;15.40;;;;;;;;;;5008491;28;20048;-78
2022/11/16 14:42:06;;;;;;;33.55;14.82;;;;;;;;;;5013021;28;20369;-78
2022/11/16 14:44:36;;;;;;;39.37;16.00;;;;;;;;;;4993246;28;20151;-77
2022/11/16 14:47:02;;;;;;;37.28;16.48;;;;;;;;;;5005174;28;20055;-76
2022/11/16 14:49:33;;;;;;;34.93;16.50;;;;;;;;;;5006343;28;20031;-78
2022/11/16 14:52:01;;;;;;;34.67;17.00;;;;;;;;;;5018415;28;20045;-78
2022/11/16 14:54:49;;;;;;;39.07;16.90;;;;;;;;;;5005570;28;20096;-78
2022/11/16 14:57:21;;;;;;;38.57;16.33;;;;;;;;;;4996078;28;20108;-77
2022/11/16 14:59:47;;;;;;;35.63;16.60;;;;;;;;;;5008037;28;20542;-77
2022/11/16 15:02:20;;;;;;;33.87;16.00;;;;;;;;;;5022955;28;20033;-77
2022/11/16 15:04:47;;;;;;;39.80;16.30;;;;;;;;;;4997909;28;20026;-77
2022/11/16 15:07:14;;;;;;;39.77;16.97;;;;;;;;;;4998786;28;20050;-79
2022/11/16 15:09:43;;;;;;;50.65;19.73;;;;;;;;;;5004002;28;20080;-78
2022/11/16 15:15:06;;;;;;;44.88;18.63;;;;;;;;;;5003443;28;20041;-79
2022/11/16 15:17:32;;;;;;;46.50;18.40;;;;;;;;;;5006048;28;20018;-78
2022/11/16 15:20:01;;;;;;;47.95;19.83;;;;;;;;;;5010917;28;20080;-78
2022/11/16 15:22:30;;;;;;;47.33;19.85;;;;;;;;;;5008159;28;20037;-78
2022/11/16 15:24:57;;;;;;;48.33;20.00;;;;;;;;;;5008032;28;20033;-80
2022/11/16 15:27:35;;;;;;;50.60;19.37;;;;;;;;;;5009266;28;20030;-78